createdAt,value
2018-02-06T00:00:39.773Z,96.96
2018-02-06T00:01:45.316Z,96.96
2018-02-06T00:02:50.835Z,97.15
2018-02-06T00:03:56.357Z,97.43
2018-02-06T00:05:01.885Z,96.68
2018-02-06T00:06:07.410Z,97.34
2018-02-06T00:07:12.939Z,97.15
2018-02-06T00:08:18.467Z,97.24
2018-02-06T00:09:23.990Z,97.05
2018-02-06T00:10:29.519Z,97.05
2018-02-06T00:11:35.051Z,96.86
2018-02-06T00:12:40.575Z,97.05
2018-02-06T00:13:46.103Z,97.15
2018-02-06T00:14:51.631Z,97.15
2018-02-06T00:15:57.161Z,97.34
2018-02-06T00:17:02.681Z,97.05
2018-02-06T00:18:08.208Z,96.86
2018-02-06T00:19:13.738Z,97.05
2018-02-06T00:20:19.261Z,97.62
2018-02-06T00:21:24.791Z,97.15
2018-02-06T00:22:30.320Z,97.43
2018-02-06T00:23:35.847Z,97.34
2018-02-06T00:24:41.374Z,98.10
2018-02-06T00:25:46.899Z,97.43
2018-02-06T00:26:52.432Z,97.62
2018-02-06T00:27:57.962Z,97.62
2018-02-06T00:29:03.479Z,97.43
2018-02-06T00:30:09.008Z,98.19
2018-02-06T00:31:14.538Z,97.91
2018-02-06T00:32:20.061Z,97.91
2018-02-06T00:33:25.596Z,97.62
2018-02-06T00:34:31.113Z,97.72
2018-02-06T00:35:36.642Z,97.72
2018-02-06T00:36:42.170Z,97.72
2018-02-06T00:37:47.696Z,97.53
2018-02-06T00:38:53.224Z,97.72
2018-02-06T00:39:58.749Z,98.10
2018-02-06T00:41:04.283Z,97.53
2018-02-06T00:42:09.806Z,97.81
2018-02-06T00:43:15.330Z,98.28
2018-02-06T00:44:20.857Z,97.91
2018-02-06T00:45:26.384Z,98.19
2018-02-06T00:46:31.920Z,98.10
2018-02-06T00:47:37.437Z,98.10
2018-02-06T00:48:42.968Z,98.19
2018-02-06T00:49:48.498Z,98.19
2018-02-06T00:50:54.026Z,98.00
2018-02-06T00:51:59.553Z,98.19
2018-02-06T00:53:05.073Z,98.19
2018-02-06T00:54:10.602Z,98.28
2018-02-06T00:55:16.148Z,98.38
2018-02-06T00:56:21.657Z,98.00
2018-02-06T00:57:27.182Z,98.94
2018-02-06T00:58:32.713Z,98.57
2018-02-06T00:59:38.238Z,98.57
2018-02-06T01:00:43.763Z,98.66
2018-02-06T01:01:49.293Z,98.57
2018-02-06T01:02:54.818Z,98.38
2018-02-06T01:04:00.344Z,98.75
2018-02-06T01:05:05.873Z,98.85
2018-02-06T01:06:11.399Z,98.85
2018-02-06T01:07:16.929Z,98.66
2018-02-06T01:08:22.453Z,97.91
2018-02-06T01:09:27.979Z,98.00
2018-02-06T01:10:33.511Z,98.19
2018-02-06T01:11:39.046Z,98.00
2018-02-06T01:12:44.560Z,98.10
2018-02-06T01:13:50.090Z,98.10
2018-02-06T01:14:55.621Z,98.00
2018-02-06T01:16:01.184Z,98.19
2018-02-06T01:17:06.679Z,98.10
2018-02-06T01:18:12.191Z,98.19
2018-02-06T01:19:17.727Z,97.81
2018-02-06T01:20:23.249Z,98.85
2018-02-06T01:21:28.779Z,98.57
2018-02-06T01:22:34.312Z,99.04
2018-02-06T01:23:39.831Z,98.75
2018-02-06T01:24:45.365Z,98.66
2018-02-06T01:25:50.882Z,98.75
2018-02-06T01:26:56.412Z,99.04
2018-02-06T01:28:01.939Z,99.13
2018-02-06T01:29:07.466Z,99.04
2018-02-06T01:30:12.991Z,99.13
2018-02-06T01:31:18.514Z,98.94
2018-02-06T01:32:24.043Z,98.94
2018-02-06T01:33:29.580Z,98.75
2018-02-06T01:34:35.099Z,98.85
2018-02-06T01:35:40.622Z,98.85
2018-02-06T01:36:46.156Z,98.75
2018-02-06T01:37:51.683Z,98.66
2018-02-06T01:38:57.211Z,98.66
2018-02-06T01:40:02.729Z,98.75
2018-02-06T01:41:08.259Z,98.57
2018-02-06T01:42:13.787Z,98.94
2018-02-06T01:43:19.313Z,98.94
2018-02-06T01:44:24.842Z,98.85
2018-02-06T01:45:30.375Z,98.94
2018-02-06T01:46:35.892Z,98.94
2018-02-06T01:47:41.423Z,99.04
2018-02-06T01:48:46.946Z,98.85
2018-02-06T01:49:52.474Z,98.94
2018-02-06T01:50:58.004Z,98.94
2018-02-06T01:52:03.531Z,99.04
2018-02-06T01:53:09.052Z,98.85
2018-02-06T01:54:14.621Z,98.94
2018-02-06T01:55:20.113Z,99.04
2018-02-06T01:56:25.636Z,99.04
2018-02-06T01:57:31.161Z,99.04
2018-02-06T01:58:36.695Z,98.85
2018-02-06T01:59:42.218Z,98.75
2018-02-06T02:00:47.742Z,98.75
2018-02-06T02:01:53.278Z,98.75
2018-02-06T02:02:58.796Z,98.75
2018-02-06T02:04:04.325Z,98.85
2018-02-06T02:05:09.853Z,98.94
2018-02-06T02:06:15.385Z,98.75
2018-02-06T02:07:20.913Z,98.75
2018-02-06T02:08:26.430Z,98.66
2018-02-06T02:09:31.956Z,98.85
2018-02-06T02:10:37.484Z,98.85
2018-02-06T02:11:43.012Z,98.66
2018-02-06T02:12:48.540Z,98.94
2018-02-06T02:13:54.062Z,98.57
2018-02-06T02:14:59.588Z,98.94
2018-02-06T02:16:05.118Z,98.85
2018-02-06T02:17:10.650Z,98.85
2018-02-06T02:18:16.169Z,98.94
2018-02-06T02:19:21.700Z,98.85
2018-02-06T02:20:27.227Z,98.75
2018-02-06T02:21:32.750Z,98.75
2018-02-06T02:22:38.275Z,98.75
2018-02-06T02:23:43.811Z,98.85
2018-02-06T02:24:49.333Z,99.41
2018-02-06T02:25:54.858Z,99.32
2018-02-06T02:27:00.389Z,99.22
2018-02-06T02:28:05.912Z,98.85
2018-02-06T02:29:11.434Z,99.32
2018-02-06T02:30:16.962Z,99.04
2018-02-06T02:31:22.493Z,99.18
2018-02-06T02:32:28.017Z,99.18
2018-02-06T02:33:33.550Z,99.27
2018-02-06T02:34:39.073Z,99.46
2018-02-06T02:35:44.595Z,98.99
2018-02-06T02:36:50.126Z,99.22
2018-02-06T02:37:55.650Z,99.22
2018-02-06T02:39:01.182Z,99.51
2018-02-06T02:40:06.708Z,99.18
2018-02-06T02:41:12.325Z,99.27
2018-02-06T04:39:09.071Z,99.65
2018-02-06T04:40:14.605Z,99.74
2018-02-06T04:41:20.126Z,99.84
2018-02-06T04:42:25.648Z,99.99
2018-02-06T04:43:31.179Z,99.93
2018-02-06T04:44:36.699Z,99.99
2018-02-06T04:45:42.231Z,99.99
2018-02-06T04:46:47.750Z,99.93
2018-02-06T04:47:53.279Z,99.99
2018-02-06T04:48:58.809Z,99.84
2018-02-06T04:50:04.343Z,99.99
2018-02-06T04:51:09.861Z,99.74
2018-02-06T04:52:15.381Z,99.99
2018-02-06T04:53:20.905Z,99.99
2018-02-06T04:54:26.444Z,99.55
2018-02-06T04:55:31.962Z,99.74
2018-02-06T04:56:37.490Z,99.99
2018-02-06T04:57:43.012Z,99.99
2018-02-06T04:58:48.536Z,99.99
2018-02-06T04:59:54.066Z,99.99
2018-02-06T05:00:59.589Z,99.99
2018-02-06T05:02:05.119Z,99.99
2018-02-06T05:03:10.644Z,99.99
2018-02-06T05:04:16.170Z,99.99
2018-02-06T05:05:21.692Z,99.99
2018-02-06T05:06:27.221Z,99.84
2018-02-06T05:07:32.743Z,99.99
2018-02-06T05:08:38.272Z,99.99
2018-02-06T05:09:43.795Z,99.93
2018-02-06T05:10:49.324Z,99.99
2018-02-06T05:11:54.851Z,99.99
2018-02-06T05:13:00.372Z,99.84
2018-02-06T05:14:05.900Z,99.99
2018-02-06T05:15:11.422Z,99.84
2018-02-06T05:16:16.959Z,99.84
2018-02-06T05:17:22.476Z,99.99
2018-02-06T05:18:28.003Z,99.93
2018-02-06T05:19:33.526Z,99.99
2018-02-06T05:20:39.054Z,99.99
2018-02-06T05:21:44.579Z,99.99
2018-02-06T05:22:50.108Z,99.99
2018-02-06T05:23:55.640Z,99.99
2018-02-06T05:25:01.162Z,99.99
2018-02-06T05:26:06.684Z,99.99
2018-02-06T05:27:12.212Z,99.99
2018-02-06T05:28:17.737Z,99.93
2018-02-06T05:29:23.267Z,99.99
2018-02-06T05:30:28.786Z,99.99
2018-02-06T05:31:34.311Z,99.99
2018-02-06T05:32:39.846Z,99.93
2018-02-06T05:33:45.364Z,99.99
2018-02-06T05:34:50.889Z,99.99
2018-02-06T05:35:56.577Z,99.93
2018-02-06T05:37:01.941Z,99.99
2018-02-06T05:38:07.468Z,99.84
2018-02-06T05:39:13.006Z,99.84
2018-02-06T05:40:18.520Z,99.99
2018-02-06T05:41:24.046Z,99.84
2018-02-06T05:42:29.570Z,99.99
2018-02-06T05:43:35.107Z,99.84
2018-02-06T05:44:40.628Z,99.84
2018-02-06T05:45:46.151Z,99.99
2018-02-06T05:46:51.672Z,99.99
2018-02-06T05:47:57.201Z,99.65
2018-02-06T05:49:02.725Z,99.65
2018-02-06T05:50:08.256Z,99.99
2018-02-06T05:51:13.787Z,99.99
2018-02-06T05:52:19.304Z,99.84
2018-02-06T05:53:24.831Z,99.99
2018-02-06T05:54:30.494Z,99.99
2018-02-06T05:55:36.022Z,99.93
2018-02-06T05:56:41.453Z,99.99
2018-02-06T05:57:46.937Z,99.99
2018-02-06T05:58:52.455Z,99.93
2018-02-06T05:59:57.985Z,99.93
2018-02-06T06:01:03.707Z,99.99
2018-02-06T06:02:09.061Z,99.99
2018-02-06T06:03:14.676Z,99.99
2018-02-06T06:04:20.210Z,99.99
2018-02-06T06:05:25.678Z,99.99
2018-02-06T06:06:31.142Z,99.99
2018-02-06T06:07:36.670Z,99.99
2018-02-06T06:08:42.198Z,99.99
2018-02-06T06:09:47.794Z,99.99
2018-02-06T06:10:53.241Z,99.99
2018-02-06T06:11:58.763Z,99.99
2018-02-06T06:13:04.295Z,99.93
2018-02-06T06:14:09.822Z,99.99
2018-02-06T06:15:15.343Z,99.93
2018-02-06T06:16:20.869Z,99.93
2018-02-06T06:17:26.397Z,99.99
2018-02-06T06:18:31.928Z,99.99
2018-02-06T06:19:37.464Z,99.99
2018-02-06T06:20:42.974Z,99.99
2018-02-06T06:21:48.500Z,99.84
2018-02-06T06:22:54.088Z,99.84
2018-02-06T06:23:59.550Z,99.99
2018-02-06T06:25:05.077Z,99.99
2018-02-06T06:26:10.605Z,99.99
2018-02-06T06:27:16.127Z,99.99
2018-02-06T06:28:21.655Z,99.99
2018-02-06T06:29:27.192Z,99.99
2018-02-06T06:30:32.717Z,99.93
2018-02-06T06:31:38.235Z,99.99
2018-02-06T06:32:43.756Z,99.99
2018-02-06T06:33:49.282Z,99.99
2018-02-06T06:34:54.812Z,99.99
2018-02-06T06:36:00.343Z,99.69
2018-02-06T06:37:05.859Z,99.79
2018-02-06T06:38:11.383Z,99.88
2018-02-06T06:39:16.914Z,99.99
2018-02-06T06:40:22.434Z,99.88
2018-02-06T06:41:27.962Z,99.98
2018-02-06T06:42:33.488Z,99.88
2018-02-06T06:43:39.017Z,99.88
2018-02-06T06:44:44.539Z,99.88
2018-02-06T06:45:50.064Z,99.79
2018-02-06T06:46:55.587Z,99.99
2018-02-06T06:48:01.120Z,99.88
2018-02-06T06:49:06.642Z,99.79
2018-02-06T06:50:12.173Z,99.79
2018-02-06T06:51:17.694Z,99.51
2018-02-06T06:52:23.225Z,99.69
2018-02-06T06:53:28.740Z,99.60
2018-02-06T06:54:34.275Z,99.98
2018-02-06T06:55:39.796Z,99.79
2018-02-06T06:56:45.321Z,99.79
2018-02-06T06:57:50.847Z,99.88
2018-02-06T06:58:56.375Z,99.99
2018-02-06T07:00:01.903Z,99.99
2018-02-06T07:01:07.424Z,99.22
2018-02-06T07:02:12.961Z,99.22
2018-02-06T07:03:18.479Z,99.32
2018-02-06T07:04:23.998Z,99.13
2018-02-06T07:05:29.523Z,98.94
2018-02-06T07:06:35.057Z,99.41
2018-02-06T07:07:40.577Z,99.13
2018-02-06T07:08:46.103Z,98.94
2018-02-06T07:09:51.631Z,99.60
2018-02-06T07:10:57.156Z,99.13
2018-02-06T07:12:02.679Z,99.13
2018-02-06T07:13:08.278Z,99.13
2018-02-06T07:14:13.770Z,99.88
2018-02-06T07:15:19.256Z,99.79
2018-02-06T07:16:24.801Z,99.74
2018-02-06T07:17:30.310Z,99.99
2018-02-06T07:18:35.833Z,99.99
2018-02-06T07:19:41.355Z,99.84
2018-02-06T07:20:46.895Z,99.65
2018-02-06T07:21:52.412Z,99.74
2018-02-06T07:22:57.939Z,99.84
2018-02-06T07:24:03.458Z,99.84
2018-02-06T07:25:08.990Z,99.84
2018-02-06T07:26:14.517Z,99.55
2018-02-06T07:27:20.035Z,99.65
2018-02-06T07:28:25.564Z,99.74
2018-02-06T07:29:31.086Z,99.99
2018-02-06T07:30:36.619Z,99.74
2018-02-06T07:31:42.142Z,99.99
2018-02-06T07:32:47.667Z,99.99
2018-02-06T07:33:53.201Z,99.99
2018-02-06T07:34:58.720Z,99.74
2018-02-06T07:36:04.245Z,99.99
2018-02-06T07:37:09.770Z,99.99
2018-02-06T07:38:15.293Z,99.99
2018-02-06T07:39:20.823Z,99.99
2018-02-06T07:40:26.344Z,99.99
2018-02-06T07:41:31.871Z,99.99
2018-02-06T07:42:37.403Z,99.65
2018-02-06T07:43:42.923Z,99.55
2018-02-06T07:44:48.452Z,99.99
2018-02-06T07:45:53.978Z,99.99
2018-02-06T07:46:59.507Z,99.99
2018-02-06T07:48:05.027Z,99.74
2018-02-06T07:49:10.554Z,99.99
2018-02-06T07:50:16.078Z,99.93
2018-02-06T07:51:21.604Z,99.99
2018-02-06T07:52:27.130Z,99.93
2018-02-06T07:53:32.657Z,99.74
2018-02-06T07:54:38.195Z,99.93
2018-02-06T07:55:43.708Z,99.74
2018-02-06T07:56:49.238Z,99.99
2018-02-06T07:57:54.764Z,99.99
2018-02-06T07:59:00.291Z,99.99
2018-02-06T08:01:37.673Z,99.84
2018-02-06T08:02:43.126Z,99.74
2018-02-06T08:03:48.642Z,99.84
2018-02-06T08:04:54.173Z,99.93
2018-02-06T08:05:59.693Z,99.93
2018-02-06T08:07:05.230Z,99.99
2018-02-06T08:08:10.750Z,99.99
2018-02-06T08:09:16.279Z,99.99
2018-02-06T08:10:21.795Z,99.37
2018-02-06T08:11:27.328Z,99.27
2018-02-06T08:12:32.846Z,98.80
2018-02-06T08:13:38.375Z,99.27
2018-02-06T08:14:43.893Z,99.18
2018-02-06T08:15:49.427Z,99.46
2018-02-06T08:16:54.942Z,99.27
2018-02-06T08:18:00.472Z,99.27
2018-02-06T08:19:05.995Z,99.27
2018-02-06T08:20:11.522Z,99.37
2018-02-06T08:21:17.053Z,99.37
2018-02-06T08:22:22.573Z,99.18
2018-02-06T08:23:28.101Z,99.08
2018-02-06T08:24:33.626Z,98.90
2018-02-06T08:25:39.155Z,98.80
2018-02-06T08:26:44.681Z,98.71
2018-02-06T08:27:50.204Z,98.80
2018-02-06T08:28:55.735Z,98.99
2018-02-06T08:30:01.262Z,98.80
2018-02-06T08:31:06.788Z,98.71
2018-02-06T08:32:12.313Z,99.18
2018-02-06T08:33:17.848Z,99.04
2018-02-06T08:34:23.368Z,99.04
2018-02-06T08:35:28.894Z,98.85
2018-02-06T08:36:34.417Z,99.04
2018-02-06T08:37:39.969Z,98.75
2018-02-06T08:38:45.471Z,98.85
2018-02-06T08:39:50.991Z,98.47
2018-02-06T08:40:56.522Z,98.00
2018-02-06T08:42:02.054Z,97.91
2018-02-06T08:43:07.611Z,97.43
2018-02-06T08:44:13.104Z,97.53
2018-02-06T08:45:18.636Z,98.00
2018-02-06T08:46:24.160Z,97.34
2018-02-06T08:47:29.680Z,97.53
2018-02-06T08:48:35.213Z,97.62
2018-02-06T08:49:40.732Z,97.43
2018-02-06T08:50:46.262Z,97.15
2018-02-06T08:51:51.785Z,96.96
2018-02-06T08:52:57.315Z,97.05
2018-02-06T08:54:02.841Z,97.15
2018-02-06T08:55:08.373Z,96.49
2018-02-06T08:56:13.892Z,96.68
2018-02-06T08:57:19.418Z,96.77
2018-02-06T08:58:24.948Z,96.77
2018-02-06T08:59:30.478Z,96.11
2018-02-06T09:00:36.003Z,96.39
2018-02-06T09:01:41.533Z,96.49
2018-02-06T09:02:47.052Z,96.11
2018-02-06T09:03:52.580Z,95.83
2018-02-06T09:04:58.112Z,95.92
2018-02-06T09:06:03.635Z,95.92
2018-02-06T09:07:09.168Z,96.30
2018-02-06T09:08:14.688Z,95.73
2018-02-06T09:09:20.216Z,95.73
2018-02-06T09:10:25.742Z,95.64
2018-02-06T09:11:31.269Z,95.54
2018-02-06T09:12:37.195Z,94.89
2018-02-06T09:13:42.666Z,94.32
2018-02-06T09:14:48.116Z,94.51
2018-02-06T09:15:53.384Z,94.03
2018-02-06T09:16:58.904Z,93.94
2018-02-06T09:18:04.434Z,93.56
2018-02-06T09:19:09.959Z,93.89
2018-02-06T09:20:15.496Z,93.75
2018-02-06T09:21:21.013Z,93.61
2018-02-06T09:22:26.543Z,92.94
2018-02-06T09:23:32.080Z,92.85
2018-02-06T09:24:37.598Z,93.04
2018-02-06T09:25:43.130Z,93.04
2018-02-06T09:26:48.654Z,93.42
2018-02-06T09:27:54.180Z,92.85
2018-02-06T09:28:59.718Z,92.85
2018-02-06T09:30:05.250Z,92.94
2018-02-06T09:31:10.764Z,93.32
2018-02-06T09:32:16.289Z,92.85
2018-02-06T09:33:21.824Z,92.66
2018-02-06T09:34:27.342Z,93.04
2018-02-06T09:35:32.870Z,92.66
2018-02-06T09:36:38.396Z,92.66
2018-02-06T09:37:43.928Z,92.76
2018-02-06T09:38:49.452Z,92.57
2018-02-06T09:39:54.982Z,92.19
2018-02-06T09:41:00.508Z,91.91
2018-02-06T09:42:06.037Z,91.34
2018-02-06T09:43:11.563Z,90.59
2018-02-06T09:44:17.102Z,89.64
2018-02-06T09:45:22.626Z,90.11
2018-02-06T09:46:28.144Z,89.64
2018-02-06T09:47:33.679Z,88.13
2018-02-06T09:48:39.203Z,87.09
2018-02-06T09:49:44.728Z,87.94
2018-02-06T09:50:50.255Z,88.32
2018-02-06T09:51:55.796Z,88.89
2018-02-06T09:53:01.317Z,89.64
2018-02-06T09:54:06.852Z,89.26
2018-02-06T09:55:12.366Z,89.54
2018-02-06T09:56:17.897Z,89.73
2018-02-06T09:57:23.423Z,90.02
2018-02-06T09:58:28.954Z,89.54
2018-02-06T09:59:34.486Z,89.26
2018-02-06T10:00:40.008Z,88.13
2018-02-06T10:01:45.537Z,87.66
2018-02-06T10:02:51.064Z,86.62
2018-02-06T10:03:56.591Z,85.68
2018-02-06T10:05:02.117Z,84.92
2018-02-06T10:06:07.657Z,84.45
2018-02-06T10:07:13.183Z,84.64
2018-02-06T10:08:18.700Z,84.73
2018-02-06T10:09:24.231Z,84.64
2018-02-06T10:10:29.760Z,84.54
2018-02-06T10:11:35.292Z,84.45
2018-02-06T10:12:40.812Z,84.54
2018-02-06T10:13:46.343Z,84.73
2018-02-06T10:14:51.867Z,83.88
2018-02-06T10:15:57.449Z,83.50
2018-02-06T10:17:02.927Z,82.98
2018-02-06T10:18:08.460Z,81.65
2018-02-06T10:19:13.980Z,80.71
2018-02-06T10:20:19.508Z,80.90
2018-02-06T10:21:25.039Z,81.37
2018-02-06T10:22:30.571Z,81.18
2018-02-06T10:23:36.093Z,80.90
2018-02-06T10:24:41.627Z,81.65
2018-02-06T10:25:47.158Z,80.99
2018-02-06T10:26:52.684Z,80.52
2018-02-06T10:27:58.207Z,79.67
2018-02-06T10:29:03.734Z,79.76
2018-02-06T10:30:09.266Z,79.38
2018-02-06T10:31:14.791Z,79.00
2018-02-06T10:32:20.319Z,79.00
2018-02-06T10:33:25.849Z,78.34
2018-02-06T10:34:31.375Z,78.16
2018-02-06T10:35:36.911Z,77.87
2018-02-06T10:36:42.432Z,77.78
2018-02-06T10:37:47.963Z,77.59
2018-02-06T10:38:53.492Z,77.40
2018-02-06T10:39:59.021Z,77.59
2018-02-06T10:41:04.548Z,77.50
2018-02-06T10:42:10.086Z,76.64
2018-02-06T10:43:15.651Z,77.40
2018-02-06T10:44:21.131Z,76.93
2018-02-06T10:45:26.661Z,77.21
2018-02-06T10:46:32.206Z,77.21
2018-02-06T10:47:37.728Z,77.21
2018-02-06T10:48:43.253Z,77.12
2018-02-06T10:49:48.774Z,76.83
2018-02-06T10:50:54.302Z,76.26
2018-02-06T10:51:59.838Z,75.98
2018-02-06T10:53:05.362Z,75.60
2018-02-06T10:54:10.888Z,75.70
2018-02-06T10:55:16.416Z,74.85
2018-02-06T10:56:21.952Z,74.04
2018-02-06T10:57:27.473Z,75.07
2018-02-06T10:58:33.003Z,74.32
2018-02-06T10:59:38.531Z,73.85
2018-02-06T11:00:44.068Z,74.04
2018-02-06T11:01:49.590Z,73.75
2018-02-06T11:02:55.120Z,72.80
2018-02-06T11:04:00.645Z,71.20
2018-02-06T11:05:06.178Z,71.48
2018-02-06T11:06:11.705Z,71.95
2018-02-06T11:07:17.237Z,72.99
2018-02-06T11:08:22.759Z,72.80
2018-02-06T11:09:28.301Z,72.71
2018-02-06T11:10:33.821Z,72.71
2018-02-06T11:11:39.348Z,72.05
2018-02-06T11:12:44.881Z,72.14
2018-02-06T11:13:50.410Z,72.80
2018-02-06T11:14:55.938Z,72.99
2018-02-06T11:16:01.463Z,72.52
2018-02-06T11:17:06.995Z,72.14
2018-02-06T11:18:12.526Z,71.30
2018-02-06T11:19:18.059Z,71.39
2018-02-06T11:20:23.578Z,70.73
2018-02-06T11:21:29.107Z,71.30
2018-02-06T11:22:34.645Z,71.39
2018-02-06T11:23:40.175Z,71.48
2018-02-06T11:24:45.700Z,71.30
2018-02-06T11:25:51.223Z,71.39
2018-02-06T11:26:56.757Z,72.05
2018-02-06T11:28:02.282Z,71.39
2018-02-06T11:29:07.813Z,70.44
2018-02-06T11:30:13.346Z,70.35
2018-02-06T11:31:18.867Z,68.74
2018-02-06T11:32:24.405Z,69.12
2018-02-06T11:33:29.935Z,68.46
2018-02-06T11:34:35.458Z,68.65
2018-02-06T11:35:40.989Z,69.02
2018-02-06T11:36:46.521Z,68.36
2018-02-06T11:37:52.048Z,67.41
2018-02-06T11:38:57.576Z,68.36
2018-02-06T11:40:03.105Z,70.06
2018-02-06T11:41:08.640Z,68.55
2018-02-06T11:42:14.169Z,69.25
2018-02-06T11:43:19.694Z,69.15
2018-02-06T11:44:25.228Z,69.06
2018-02-06T11:45:30.761Z,68.49
2018-02-06T11:46:36.284Z,67.83
2018-02-06T11:47:41.812Z,67.17
2018-02-06T11:48:47.338Z,68.02
2018-02-06T11:49:52.867Z,66.79
2018-02-06T11:50:58.401Z,68.12
2018-02-06T11:52:03.935Z,67.36
2018-02-06T11:53:09.459Z,66.69
2018-02-06T11:54:14.989Z,67.83
2018-02-06T11:55:20.518Z,67.74
2018-02-06T11:56:26.051Z,68.12
2018-02-06T11:57:31.581Z,66.79
2018-02-06T11:58:37.111Z,66.22
2018-02-06T11:59:42.632Z,66.79
2018-02-06T12:00:48.165Z,66.03
2018-02-06T12:01:53.695Z,67.17
2018-02-06T12:02:59.228Z,67.93
2018-02-06T12:04:04.761Z,67.45
2018-02-06T12:05:10.285Z,69.06
2018-02-06T12:06:15.814Z,69.15
2018-02-06T12:07:21.339Z,68.49
2018-02-06T12:08:26.878Z,67.45
2018-02-06T12:09:32.400Z,69.15
2018-02-06T12:10:37.931Z,69.72
2018-02-06T12:11:43.461Z,67.74
2018-02-06T12:12:48.990Z,68.30
2018-02-06T12:13:54.521Z,68.87
2018-02-06T12:15:00.051Z,69.15
2018-02-06T12:16:05.581Z,67.64
2018-02-06T12:17:11.136Z,67.93
2018-02-06T12:18:16.641Z,68.40
2018-02-06T12:19:22.174Z,68.30
2018-02-06T12:20:27.703Z,68.40
2018-02-06T12:21:33.227Z,68.30
2018-02-06T12:22:38.756Z,67.45
2018-02-06T12:23:44.293Z,67.64
2018-02-06T12:24:49.819Z,66.41
2018-02-06T12:25:55.349Z,65.84
2018-02-06T12:27:00.875Z,65.94
2018-02-06T12:28:06.408Z,66.98
2018-02-06T12:29:11.935Z,67.74
2018-02-06T12:30:17.474Z,67.93
2018-02-06T12:31:22.999Z,67.74
2018-02-06T12:32:28.526Z,67.83
2018-02-06T12:33:34.060Z,67.93
2018-02-06T12:34:39.590Z,67.64
2018-02-06T12:35:45.219Z,68.02
2018-02-06T12:36:50.644Z,66.60
2018-02-06T12:37:56.170Z,66.50
2018-02-06T12:39:01.714Z,66.79
2018-02-06T12:40:07.285Z,68.21
2018-02-06T12:41:12.765Z,66.31
2018-02-06T12:42:18.298Z,66.22
2018-02-06T12:43:23.825Z,66.79
2018-02-06T12:44:29.362Z,66.98
2018-02-06T12:45:34.890Z,67.36
2018-02-06T12:46:40.418Z,66.50
2018-02-06T12:47:45.952Z,65.56
2018-02-06T12:48:51.478Z,66.98
2018-02-06T12:49:57.012Z,68.02
2018-02-06T12:51:02.532Z,66.60
2018-02-06T12:52:08.063Z,67.07
2018-02-06T12:53:13.600Z,67.93
2018-02-06T12:54:19.126Z,67.17
2018-02-06T12:55:24.654Z,64.90
2018-02-06T12:56:30.187Z,64.61
2018-02-06T12:57:35.726Z,66.98
2018-02-06T12:58:41.256Z,67.64
2018-02-06T12:59:46.789Z,64.04
2018-02-06T13:00:52.309Z,64.04
2018-02-06T13:01:57.834Z,66.13
2018-02-06T13:03:03.364Z,66.98
2018-02-06T13:04:08.902Z,68.21
2018-02-06T13:05:14.429Z,69.91
2018-02-06T13:06:19.965Z,69.72
2018-02-06T13:07:25.486Z,69.91
2018-02-06T13:08:31.013Z,70.20
2018-02-06T13:09:36.549Z,70.10
2018-02-06T13:10:42.076Z,70.01
2018-02-06T13:11:47.603Z,68.87
2018-02-06T13:12:53.136Z,69.06
2018-02-06T13:13:58.670Z,67.83
2018-02-06T13:15:04.191Z,68.30
2018-02-06T13:16:09.729Z,69.06
2018-02-06T13:17:15.256Z,68.12
2018-02-06T13:18:20.783Z,68.40
2018-02-06T13:19:26.315Z,67.07
2018-02-06T13:20:31.850Z,66.69
2018-02-06T13:21:37.378Z,66.60
2018-02-06T13:22:42.903Z,66.31
2018-02-06T13:23:48.432Z,67.17
2018-02-06T13:24:53.968Z,67.07
2018-02-06T13:25:59.503Z,66.03
2018-02-06T13:27:05.029Z,66.41
2018-02-06T13:28:10.556Z,66.88
2018-02-06T13:29:16.123Z,67.36
2018-02-06T13:30:21.621Z,67.07
2018-02-06T13:31:27.148Z,67.07
2018-02-06T13:32:32.677Z,68.12
2018-02-06T13:33:38.208Z,67.07
2018-02-06T13:34:43.735Z,67.55
2018-02-06T13:35:49.268Z,68.59
2018-02-06T13:36:54.794Z,67.17
2018-02-06T13:38:00.322Z,66.88
2018-02-06T13:39:05.852Z,66.22
2018-02-06T13:40:11.383Z,66.50
2018-02-06T13:41:16.913Z,65.56
2018-02-06T13:42:22.441Z,66.69
2018-02-06T13:43:27.969Z,66.98
2018-02-06T13:44:33.503Z,66.41
2018-02-06T13:45:39.030Z,67.45
2018-02-06T13:46:44.563Z,68.87
2018-02-06T13:47:50.094Z,68.40
2018-02-06T13:48:55.621Z,67.83
2018-02-06T13:50:01.151Z,66.47
2018-02-06T13:51:06.681Z,67.36
2018-02-06T13:52:12.213Z,66.85
2018-02-06T13:53:17.740Z,66.66
2018-02-06T13:54:23.271Z,66.38
2018-02-06T13:55:28.802Z,67.03
2018-02-06T13:56:34.330Z,66.38
2018-02-06T13:57:39.862Z,66.28
2018-02-06T13:58:45.385Z,66.28
2018-02-06T13:59:50.925Z,67.70
2018-02-06T14:00:56.450Z,67.32
2018-02-06T14:02:01.976Z,66.47
2018-02-06T14:03:07.512Z,66.94
2018-02-06T14:04:13.040Z,68.93
2018-02-06T14:05:18.568Z,68.93
2018-02-06T14:06:24.100Z,68.36
2018-02-06T14:07:29.626Z,69.40
2018-02-06T14:08:35.156Z,69.59
2018-02-06T14:09:40.694Z,67.70
2018-02-06T14:10:46.214Z,67.13
2018-02-06T14:11:51.748Z,67.32
2018-02-06T14:12:57.277Z,68.46
2018-02-06T14:14:02.802Z,67.79
2018-02-06T14:15:08.360Z,68.08
2018-02-06T14:16:13.864Z,67.03
2018-02-06T14:17:19.391Z,66.75
2018-02-06T14:18:24.918Z,68.17
2018-02-06T14:19:30.448Z,67.13
2018-02-06T14:20:35.981Z,67.70
2018-02-06T14:21:41.512Z,69.78
2018-02-06T14:22:47.046Z,71.01
2018-02-06T14:23:52.569Z,70.92
2018-02-06T14:24:58.133Z,69.97
2018-02-06T14:26:03.624Z,69.12
2018-02-06T14:27:09.151Z,69.12
2018-02-06T14:28:14.682Z,69.68
2018-02-06T14:29:20.223Z,69.02
2018-02-06T14:30:25.740Z,69.37
2018-02-06T14:31:31.275Z,70.06
2018-02-06T14:32:36.803Z,69.56
2018-02-06T14:33:42.328Z,70.59
2018-02-06T14:34:47.856Z,71.83
2018-02-06T14:35:53.392Z,71.73
2018-02-06T14:36:58.914Z,70.88
2018-02-06T14:38:04.444Z,71.73
2018-02-06T14:39:09.971Z,71.35
2018-02-06T14:40:15.502Z,71.54
2018-02-06T14:41:21.035Z,72.02
2018-02-06T14:42:26.558Z,71.83
2018-02-06T14:43:32.094Z,70.97
2018-02-06T14:44:37.618Z,70.97
2018-02-06T14:45:43.152Z,70.59
2018-02-06T14:46:48.681Z,70.50
2018-02-06T14:47:54.201Z,72.02
2018-02-06T14:48:59.828Z,72.58
2018-02-06T14:50:05.262Z,73.33
2018-02-06T14:51:10.796Z,71.64
2018-02-06T14:52:16.320Z,71.83
2018-02-06T14:53:21.848Z,73.05
2018-02-06T14:54:27.376Z,72.86
2018-02-06T14:55:32.905Z,71.64
2018-02-06T14:56:38.436Z,72.02
2018-02-06T14:57:43.966Z,72.58
2018-02-06T14:58:49.495Z,73.81
2018-02-06T14:59:55.022Z,74.09
2018-02-06T15:01:00.554Z,72.86
2018-02-06T15:02:06.086Z,72.02
2018-02-06T15:03:11.607Z,73.24
2018-02-06T15:04:17.132Z,74.19
2018-02-06T15:05:22.668Z,73.05
2018-02-06T15:06:28.204Z,73.71
2018-02-06T15:07:33.732Z,73.71
2018-02-06T15:08:39.250Z,73.81
2018-02-06T15:09:44.779Z,73.33
2018-02-06T15:10:50.309Z,72.58
2018-02-06T15:11:55.839Z,72.86
2018-02-06T15:13:01.366Z,72.77
2018-02-06T15:14:06.898Z,72.77
2018-02-06T15:15:12.434Z,73.05
2018-02-06T15:16:17.949Z,74.66
2018-02-06T15:17:23.479Z,74.00
2018-02-06T15:18:29.015Z,74.76
2018-02-06T15:19:34.537Z,74.76
2018-02-06T15:20:40.072Z,75.42
2018-02-06T15:21:45.591Z,75.13
2018-02-06T15:22:51.121Z,75.79
2018-02-06T15:23:56.654Z,75.60
2018-02-06T15:25:02.191Z,75.23
2018-02-06T15:26:07.713Z,74.66
2018-02-06T15:27:13.234Z,75.04
2018-02-06T15:28:18.764Z,73.90
2018-02-06T15:29:24.297Z,74.38
2018-02-06T15:30:29.831Z,74.47
2018-02-06T15:31:35.351Z,75.66
2018-02-06T15:32:40.883Z,75.60
2018-02-06T15:33:46.406Z,75.79
2018-02-06T15:34:51.966Z,76.61
2018-02-06T15:35:57.468Z,75.66
2018-02-06T15:37:02.995Z,75.38
2018-02-06T15:38:08.523Z,74.15
2018-02-06T15:39:14.051Z,73.96
2018-02-06T15:40:19.583Z,73.96
2018-02-06T15:41:25.108Z,73.77
2018-02-06T15:42:30.633Z,73.02
2018-02-06T15:43:36.162Z,73.86
2018-02-06T15:44:41.698Z,74.34
2018-02-06T15:45:47.226Z,73.86
2018-02-06T15:46:52.755Z,74.81
2018-02-06T15:47:58.272Z,74.71
2018-02-06T15:49:03.805Z,75.09
2018-02-06T15:50:09.336Z,75.19
2018-02-06T15:51:14.869Z,74.90
2018-02-06T15:52:20.392Z,74.34
2018-02-06T15:53:25.919Z,74.62
2018-02-06T15:54:31.455Z,75.47
2018-02-06T15:55:36.972Z,75.47
2018-02-06T15:56:42.504Z,77.45
2018-02-06T15:57:48.030Z,76.79
2018-02-06T15:58:53.559Z,76.98
2018-02-06T15:59:59.082Z,77.26
2018-02-06T16:01:04.613Z,77.55
2018-02-06T16:02:10.169Z,78.21